Airfield :
LOGIN :

Register | Disclaimer

   EN    FR    IT 

 










Legend :    VFR   Marginal VFR   IFR   Intensive IFR   Very Intensive IFR
Visi :
Ceiling :
>= 8 km
>= 3000ft
5 to 8 km
1000 to 3000 ft
1500m to 5 km
500 to 1000 ft
800 to 1500m
200 to 500 ft
< 800m
< 200 ft
Symbols :   Thunderstorms  Fog  Heavy snow  Heavy precipitations  Wind > 20 kt
SIGMETs :     Misc.  Thunderstorms  Icing  Turbulence  Mountain Waves  Volcanic Ashes







- Airport Elevation : 458 ft
- Download approach charts


LFSI - St-Dizier

CURRENT METAR :
  • 301630Z AUTO 15013KT 130V190 CAVOK 19/02 Q1002

EXPIRED METARs :
  • 301600Z AUTO 17012KT 140V200 CAVOK 20/02 Q1002
  • 301530Z AUTO 17013KT 140V200 CAVOK 20/01 Q1002
  • 301500Z AUTO 18018G29KT 150V210 CAVOK 21/02 Q1003
  • 301430Z AUTO 17016G27KT 130V220 CAVOK 21/01 Q1003
  • 301400Z AUTO 16014G24KT CAVOK 21/01 Q1003

TAF TAF LFSI
Valid from the 30 at 15:00 until the 01 at 15:00 UTC


301400Z 3015/0115 16015G25KT CAVOK
TEMPO 3019/0102 16020G35KT 3000 SHRA BKN012 BKN060CB
PROB40
TEMPO 3019/3021 2000 TSRA
BECMG 0102/0104 21012KT BKN020
TEMPO 0112/0115 22015G30KT 3000 SHRA BKN020CB
PROB40
TEMPO 0112/0114 2000 TSRAGS
No reported NOTAMs for that airfield.
1 SIGMET reported for the Paris FIR (LFFF) :
 
Embedded thunderstorms
LFFF SIGMET 2 VALID 301500/301700 LFPW
LFFF PARIS FIR/UIR EMBD TS OBS WI N4645 E00230 - N4715 E00200 - N4745 E00200 - N4730 E00245 TOP FL300 MOV E 15KT NC=



MET'MAP, your aeronautical weather chart ! - Copyright ORBIFLY December 2007 - Disclaimer

ORBIFLY MET'MAP TEAM :

Programming & Development : Alexandra Zaïnal
Concept & Development : Baudouin d'Aumeries
Co-Development & Prog : Marc-Olivier Méhu
Technical & hardware support : Manuel Goepfert

Contact : metmap@orbifly.com




SOURCES & CREDITS :

   NOAA